createdAt,value
2019-04-06T00:01:53.853Z,8.10
2019-04-06T00:04:24.663Z,8.00
2019-04-06T00:06:55.548Z,8.00
2019-04-06T00:09:26.957Z,8.00
2019-04-06T00:11:57.492Z,7.90
2019-04-06T00:14:28.356Z,7.90
2019-04-06T00:16:59.583Z,7.90
2019-04-06T00:19:30.037Z,7.90
2019-04-06T00:22:01.047Z,7.90
2019-04-06T00:24:32.221Z,7.90
2019-04-06T00:27:03.359Z,7.80
2019-04-06T00:29:34.373Z,7.80
2019-04-06T00:32:09.730Z,7.80
2019-04-06T00:34:42.263Z,7.70
2019-04-06T00:37:14.909Z,7.70
2019-04-06T00:39:46.061Z,7.70
2019-04-06T00:42:16.751Z,7.70
2019-04-06T00:44:47.672Z,7.70
2019-04-06T00:47:18.286Z,7.70
2019-04-06T00:49:48.552Z,7.70
2019-04-06T00:52:18.829Z,7.80
2019-04-06T00:54:49.263Z,7.80
2019-04-06T00:57:20.607Z,7.80
2019-04-06T00:59:51.349Z,7.80
2019-04-06T01:02:22.699Z,7.90
2019-04-06T01:04:53.171Z,7.90
2019-04-06T01:07:24.025Z,8.00
2019-04-06T01:09:54.921Z,8.00
2019-04-06T01:12:24.977Z,8.00
2019-04-06T01:14:55.931Z,8.00
2019-04-06T01:17:26.516Z,8.00
2019-04-06T01:19:56.890Z,8.00
2019-04-06T01:22:27.790Z,7.90
2019-04-06T01:24:58.115Z,7.90
2019-04-06T01:27:29.326Z,7.80
2019-04-06T01:30:00.616Z,7.80
2019-04-06T01:32:31.557Z,7.70
2019-04-06T01:35:02.330Z,7.70
2019-04-06T01:37:33.047Z,7.70
2019-04-06T01:40:04.798Z,7.70
2019-04-06T01:42:35.709Z,7.80
2019-04-06T01:45:07.714Z,7.80
2019-04-06T01:47:37.840Z,7.80
2019-04-06T01:50:08.373Z,7.80
2019-04-06T01:52:39.308Z,7.80
2019-04-06T01:55:10.049Z,7.80
2019-04-06T01:57:41.073Z,7.80
2019-04-06T02:00:14.191Z,7.80
2019-04-06T02:02:47.588Z,7.80
2019-04-06T02:05:19.006Z,7.90
2019-04-06T02:07:51.311Z,7.90
2019-04-06T02:10:21.570Z,7.80
2019-04-06T02:12:52.185Z,7.90
2019-04-06T02:15:22.928Z,7.90
2019-04-06T02:17:53.447Z,8.00
2019-04-06T02:20:23.582Z,8.00
2019-04-06T02:22:53.654Z,8.00
2019-04-06T02:25:26.936Z,8.00
2019-04-06T02:27:57.448Z,8.00
2019-04-06T02:30:34.588Z,8.00
2019-04-06T02:33:36.387Z,8.00
2019-04-06T02:36:17.771Z,8.00
2019-04-06T02:39:05.296Z,8.00
2019-04-06T02:41:48.203Z,8.00
2019-04-06T02:44:19.287Z,8.00
2019-04-06T02:46:50.226Z,8.00
2019-04-06T02:49:20.699Z,8.00
2019-04-06T02:51:51.893Z,8.00
2019-04-06T02:54:23.036Z,8.00
2019-04-06T02:56:53.976Z,8.00
2019-04-06T02:59:24.618Z,8.00
2019-04-06T03:04:21.702Z,8.00
2019-04-06T03:06:52.472Z,8.00
2019-04-06T03:09:23.378Z,8.00
2019-04-06T03:11:54.739Z,8.00
2019-04-06T03:14:25.673Z,7.90
2019-04-06T03:16:56.440Z,7.90
2019-04-06T03:19:27.260Z,7.90
2019-04-06T03:21:58.925Z,7.90
2019-04-06T03:24:30.070Z,7.90
2019-04-06T03:27:02.840Z,7.80
2019-04-06T03:29:33.587Z,7.80
2019-04-06T03:32:04.274Z,7.80
2019-04-06T03:34:34.850Z,7.80
2019-04-06T03:37:05.797Z,7.80
2019-04-06T03:39:36.554Z,7.80
2019-04-06T03:42:10.440Z,7.90
2019-04-06T03:44:40.015Z,7.80
2019-04-06T03:47:10.595Z,7.80
2019-04-06T03:49:40.968Z,7.80
2019-04-06T03:52:11.058Z,7.90
2019-04-06T03:54:43.223Z,7.90
2019-04-06T03:57:16.623Z,7.90
2019-04-06T03:59:45.847Z,7.90
2019-04-06T04:02:16.661Z,7.90
2019-04-06T04:04:47.804Z,7.90
2019-04-06T04:07:18.287Z,7.90
2019-04-06T04:09:49.513Z,8.00
2019-04-06T04:12:21.059Z,8.00
2019-04-06T04:14:51.692Z,8.00
2019-04-06T04:17:22.893Z,8.00
2019-04-06T04:19:53.880Z,8.00
2019-04-06T04:22:25.232Z,8.00
2019-04-06T04:24:56.174Z,8.00
2019-04-06T04:27:29.691Z,8.00
2019-04-06T04:29:59.323Z,8.00
2019-04-06T04:32:29.373Z,8.00
2019-04-06T04:35:00.142Z,8.00
2019-04-06T04:37:31.028Z,8.00
2019-04-06T04:40:01.977Z,8.00
2019-04-06T04:42:32.997Z,7.90
2019-04-06T04:45:04.332Z,7.80
2019-04-06T04:47:35.078Z,7.80
2019-04-06T04:50:06.016Z,7.80
2019-04-06T04:52:36.082Z,7.70
2019-04-06T04:55:09.327Z,7.60
2019-04-06T04:57:41.466Z,7.50
2019-04-06T05:00:12.996Z,7.40
2019-04-06T05:02:43.960Z,7.30
2019-04-06T05:05:15.567Z,7.30
2019-04-06T05:07:46.445Z,7.40
2019-04-06T05:10:17.236Z,7.30
2019-04-06T05:12:47.371Z,7.30
2019-04-06T05:15:24.968Z,7.30
2019-04-06T05:17:55.595Z,7.30
2019-04-06T05:20:25.902Z,7.20
2019-04-06T05:22:56.473Z,7.20
2019-04-06T05:25:26.713Z,7.20
2019-04-06T05:27:59.216Z,7.20
2019-04-06T05:30:29.931Z,7.20
2019-04-06T05:33:01.672Z,7.20
2019-04-06T05:35:32.815Z,7.30
2019-04-06T05:38:03.342Z,7.30
2019-04-06T05:40:34.266Z,7.40
2019-04-06T05:43:04.432Z,7.50
2019-04-06T05:45:35.764Z,7.60
2019-04-06T05:48:06.857Z,7.60
2019-04-06T05:50:37.742Z,7.70
2019-04-06T05:53:08.587Z,7.70
2019-04-06T05:55:41.102Z,7.80
2019-04-06T05:58:11.461Z,7.90
2019-04-06T06:00:42.654Z,7.90
2019-04-06T06:03:15.461Z,8.00
2019-04-06T06:05:46.384Z,8.00
2019-04-06T06:08:17.746Z,8.10
2019-04-06T06:10:48.276Z,8.20
2019-04-06T06:13:18.736Z,8.20
2019-04-06T06:15:49.564Z,8.30
2019-04-06T06:18:26.365Z,8.30
2019-04-06T06:20:53.270Z,8.30
2019-04-06T06:23:24.013Z,8.30
2019-04-06T06:25:54.132Z,8.40
2019-04-06T06:28:25.074Z,8.40
2019-04-06T06:30:55.608Z,8.50
2019-04-06T06:33:26.089Z,8.50
2019-04-06T06:35:57.290Z,8.60
2019-04-06T06:38:28.238Z,8.70
2019-04-06T06:40:59.172Z,8.90
2019-04-06T06:43:31.348Z,8.90
2019-04-06T06:46:02.294Z,9.10
2019-04-06T06:48:33.649Z,9.20
2019-04-06T06:51:04.589Z,9.20
2019-04-06T06:53:35.255Z,9.30
2019-04-06T06:56:06.778Z,9.40
2019-04-06T06:58:37.370Z,9.50
2019-04-06T07:01:08.360Z,9.50
2019-04-06T07:03:38.686Z,9.60
2019-04-06T07:06:09.556Z,9.60
2019-04-06T07:08:40.526Z,9.60
2019-04-06T07:11:11.319Z,9.70
2019-04-06T07:13:42.252Z,9.80
2019-04-06T07:16:13.398Z,10.00
2019-04-06T07:18:44.348Z,10.20
2019-04-06T07:21:16.630Z,10.50
2019-04-06T07:23:48.277Z,10.70
2019-04-06T07:26:18.846Z,10.80
2019-04-06T07:28:49.556Z,10.90
2019-04-06T07:31:20.705Z,10.90
2019-04-06T07:33:51.666Z,11.00
2019-04-06T07:36:22.106Z,11.00
2019-04-06T07:38:53.329Z,11.10
2019-04-06T07:41:23.438Z,11.30
2019-04-06T07:43:53.723Z,11.40
2019-04-06T07:46:24.495Z,11.50
2019-04-06T07:48:55.508Z,11.50
2019-04-06T07:51:26.093Z,11.60
2019-04-06T07:53:55.843Z,11.70
2019-04-06T07:56:26.855Z,11.90
2019-04-06T07:58:57.746Z,11.90
2019-04-06T08:01:29.106Z,11.90
2019-04-06T08:04:00.206Z,12.00
2019-04-06T08:06:31.169Z,12.20
2019-04-06T08:09:02.284Z,12.50
2019-04-06T08:11:33.679Z,12.80
2019-04-06T08:14:05.091Z,13.40
2019-04-06T08:16:36.017Z,13.80
2019-04-06T08:19:06.975Z,14.10
2019-04-06T08:21:37.045Z,14.30
2019-04-06T08:24:09.730Z,14.60
2019-04-06T08:26:40.427Z,15.30
2019-04-06T08:29:11.379Z,16.20
2019-04-06T08:31:41.904Z,17.10
2019-04-06T08:34:13.856Z,17.60
2019-04-06T08:36:45.748Z,18.10
2019-04-06T08:39:16.984Z,18.70
2019-04-06T08:41:47.632Z,19.30
2019-04-06T08:44:18.830Z,19.60
2019-04-06T08:46:49.778Z,19.80
2019-04-06T08:49:21.185Z,20.10
2019-04-06T08:51:52.311Z,20.30
2019-04-06T08:54:23.458Z,20.50
2019-04-06T08:56:54.519Z,20.50
2019-04-06T08:59:25.813Z,20.40
2019-04-06T09:01:59.936Z,20.60
2019-04-06T09:04:30.916Z,20.70
2019-04-06T09:07:02.041Z,20.70
2019-04-06T09:09:32.803Z,20.90
2019-04-06T09:12:03.988Z,21.00
2019-04-06T09:14:35.102Z,21.50
2019-04-06T09:17:05.507Z,21.90
2019-04-06T09:19:36.068Z,22.00
2019-04-06T09:22:06.638Z,21.90
2019-04-06T09:24:37.445Z,21.70
2019-04-06T09:27:08.023Z,21.30
2019-04-06T09:29:38.842Z,21.30
2019-04-06T09:32:10.068Z,21.40
2019-04-06T09:34:40.548Z,21.80
2019-04-06T09:37:10.653Z,22.40
2019-04-06T09:39:41.182Z,22.40
2019-04-06T09:42:12.475Z,22.10
2019-04-06T09:45:02.819Z,22.00
2019-04-06T09:47:43.381Z,22.10
2019-04-06T09:50:33.187Z,22.40
2019-04-06T09:53:25.379Z,23.10
2019-04-06T09:56:06.091Z,24.00
2019-04-06T09:58:52.766Z,24.30
2019-04-06T10:01:38.957Z,24.30
2019-04-06T10:04:20.100Z,24.40
2019-04-06T10:06:58.285Z,24.10
2019-04-06T10:09:46.430Z,23.80
2019-04-06T10:12:35.418Z,23.60
2019-04-06T10:15:38.091Z,23.90
2019-04-06T10:18:18.250Z,24.30
2019-04-06T10:20:59.716Z,24.90
2019-04-06T10:23:43.075Z,25.20
2019-04-06T10:26:31.417Z,25.60
2019-04-06T10:29:14.772Z,26.50
2019-04-06T10:32:01.050Z,26.30
2019-04-06T10:34:50.255Z,26.20
2019-04-06T10:37:33.285Z,26.40
2019-04-06T10:40:28.871Z,26.30
2019-04-06T10:43:13.042Z,26.20
2019-04-06T10:46:07.945Z,26.20
2019-04-06T10:48:45.176Z,26.70
2019-04-06T10:51:32.645Z,27.20
2019-04-06T10:54:20.195Z,27.50
2019-04-06T10:57:11.703Z,27.90
2019-04-06T11:00:01.551Z,27.40
2019-04-06T11:02:50.009Z,27.00
2019-04-06T11:05:42.471Z,26.50
2019-04-06T11:08:33.214Z,26.00
2019-04-06T11:11:21.323Z,26.00
2019-04-06T11:14:16.822Z,26.00
2019-04-06T11:17:01.760Z,25.90
2019-04-06T11:19:54.406Z,25.90
2019-04-06T11:22:32.275Z,26.10
2019-04-06T11:25:37.517Z,26.80
2019-04-06T11:28:33.167Z,27.70
2019-04-06T11:31:38.007Z,28.40
2019-04-06T11:34:28.123Z,28.10
2019-04-06T11:37:35.727Z,28.20
2019-04-06T11:40:14.928Z,28.00
2019-04-06T11:42:54.656Z,28.00
2019-04-06T11:45:31.405Z,28.00
2019-04-06T11:48:27.009Z,28.10
2019-04-06T11:51:19.875Z,28.10
2019-04-06T11:54:09.664Z,27.80
2019-04-06T11:56:50.509Z,28.00
2019-04-06T11:59:47.539Z,27.50
2019-04-06T12:02:52.602Z,26.50
2019-04-06T12:05:33.094Z,26.40
2019-04-06T12:08:25.223Z,26.80
2019-04-06T12:11:05.608Z,26.70
2019-04-06T12:13:45.043Z,25.80
2019-04-06T12:16:33.220Z,24.80
2019-04-06T12:19:25.721Z,23.90
2019-04-06T12:22:33.281Z,22.90
2019-04-06T12:25:38.389Z,21.90
2019-04-06T12:28:15.687Z,21.10
2019-04-06T12:31:17.524Z,20.40
2019-04-06T12:34:06.725Z,19.90
2019-04-06T12:36:42.989Z,19.60
2019-04-06T12:39:34.864Z,19.30
2019-04-06T12:42:21.642Z,19.10
2019-04-06T12:45:13.129Z,19.00
2019-04-06T12:48:02.795Z,18.80
2019-04-06T12:50:48.240Z,18.80
2019-04-06T12:53:27.383Z,18.80
2019-04-06T12:56:10.602Z,18.60
2019-04-06T12:58:54.146Z,18.50
2019-04-06T13:01:45.662Z,18.40
2019-04-06T13:04:33.153Z,18.30
2019-04-06T13:07:25.037Z,18.20
2019-04-06T13:10:20.803Z,18.20
2019-04-06T13:13:02.179Z,18.30
2019-04-06T13:16:00.349Z,18.30
2019-04-06T13:19:05.882Z,18.20
2019-04-06T13:21:54.151Z,18.20
2019-04-06T13:24:46.454Z,18.20
2019-04-06T13:27:33.146Z,18.20
2019-04-06T13:30:14.416Z,18.00
2019-04-06T13:33:06.986Z,18.00
2019-04-06T13:35:56.812Z,17.90
2019-04-06T13:38:55.550Z,17.90
2019-04-06T13:41:33.198Z,17.70
2019-04-06T13:44:26.372Z,17.70
2019-04-06T13:47:16.152Z,17.60
2019-04-06T13:49:57.028Z,17.60
2019-04-06T13:52:53.074Z,17.50
2019-04-06T13:55:45.315Z,17.50
2019-04-06T13:58:38.006Z,17.60
2019-04-06T14:01:22.019Z,17.60
2019-04-06T14:04:29.869Z,17.70
2019-04-06T14:07:16.132Z,17.80
2019-04-06T14:10:04.540Z,17.80
2019-04-06T14:13:00.417Z,17.90
2019-04-06T14:16:08.813Z,18.10
2019-04-06T14:19:04.453Z,18.30
2019-04-06T14:21:52.510Z,18.70
2019-04-06T14:24:36.246Z,18.80
2019-04-06T14:27:44.547Z,18.90
2019-04-06T14:30:38.340Z,18.80
2019-04-06T14:33:23.522Z,18.60
2019-04-06T14:36:09.463Z,18.50
2019-04-06T14:38:55.726Z,18.60
2019-04-06T14:41:51.850Z,18.60
2019-04-06T14:44:46.754Z,18.70
2019-04-06T14:47:39.286Z,18.90
2019-04-06T14:50:33.090Z,18.80
2019-04-06T14:53:12.728Z,18.80
2019-04-06T14:55:57.879Z,18.80
2019-04-06T14:58:48.117Z,18.90
2019-04-06T15:01:38.441Z,18.90
2019-04-06T15:04:14.591Z,19.00
2019-04-06T15:07:08.296Z,19.60
2019-04-06T15:09:46.674Z,20.40
2019-04-06T15:12:37.789Z,21.00
2019-04-06T15:15:33.265Z,21.10
2019-04-06T15:18:21.657Z,21.10
2019-04-06T15:21:06.389Z,21.00
2019-04-06T15:23:56.004Z,21.00
2019-04-06T15:26:35.353Z,21.20
2019-04-06T15:29:25.283Z,21.50
2019-04-06T15:32:17.681Z,21.60
2019-04-06T15:35:13.121Z,22.30
2019-04-06T15:37:58.961Z,22.80
2019-04-06T15:40:36.801Z,23.20
2019-04-06T15:43:20.912Z,23.90
2019-04-06T15:46:16.777Z,24.30
2019-04-06T15:49:01.304Z,24.60
2019-04-06T15:51:50.403Z,24.80
2019-04-06T15:54:41.231Z,24.90
2019-04-06T15:57:34.078Z,25.00
2019-04-06T16:00:29.805Z,24.90
2019-04-06T16:03:25.143Z,24.60
2019-04-06T16:06:20.113Z,24.30
2019-04-06T16:09:08.993Z,24.10
2019-04-06T16:11:57.351Z,23.90
2019-04-06T16:14:49.652Z,23.80
2019-04-06T16:17:45.932Z,23.60
2019-04-06T16:20:26.802Z,23.40
2019-04-06T16:23:16.422Z,23.10
2019-04-06T16:26:11.910Z,23.00
2019-04-06T16:29:13.858Z,22.90
2019-04-06T16:31:57.730Z,22.80
2019-04-06T16:34:33.172Z,22.50
2019-04-06T16:37:21.740Z,22.10
2019-04-06T16:40:01.208Z,21.70
2019-04-06T16:42:51.884Z,21.20
2019-04-06T16:45:41.670Z,20.80
2019-04-06T16:48:19.574Z,20.40
2019-04-06T16:51:07.272Z,20.00
2019-04-06T16:54:02.418Z,19.70
2019-04-06T16:56:57.095Z,19.60
2019-04-06T16:59:45.040Z,19.40
2019-04-06T17:02:34.442Z,19.40
2019-04-06T17:05:13.368Z,19.30
2019-04-06T17:07:52.355Z,19.20
2019-04-06T17:10:44.710Z,19.10
2019-04-06T17:13:34.400Z,18.90
2019-04-06T17:16:23.706Z,18.90
2019-04-06T17:19:14.405Z,18.80
2019-04-06T17:21:56.414Z,18.70
2019-04-06T17:24:49.582Z,18.50
2019-04-06T17:27:39.671Z,18.40
2019-04-06T17:30:31.708Z,18.20
2019-04-06T17:33:18.580Z,18.10
2019-04-06T17:36:08.289Z,18.00
2019-04-06T17:38:50.013Z,17.80
2019-04-06T17:41:27.512Z,17.70
2019-04-06T17:44:16.145Z,17.60
2019-04-06T17:47:19.280Z,17.50
2019-04-06T17:50:05.780Z,17.30
2019-04-06T17:52:54.953Z,17.20
2019-04-06T17:55:40.643Z,17.10
2019-04-06T17:58:45.784Z,16.90
2019-04-06T18:01:44.805Z,16.80
2019-04-06T18:04:32.971Z,16.60
2019-04-06T18:07:34.782Z,16.50
2019-04-06T18:10:37.365Z,16.40
2019-04-06T18:13:26.869Z,16.30
2019-04-06T18:15:59.860Z,16.10
2019-04-06T18:18:30.625Z,16.00
2019-04-06T18:21:01.757Z,15.80
2019-04-06T18:23:33.728Z,15.70
2019-04-06T18:26:04.033Z,15.70
2019-04-06T18:28:36.152Z,15.50
2019-04-06T18:31:13.738Z,15.40
2019-04-06T18:33:44.873Z,15.30
2019-04-06T18:36:15.361Z,15.20
2019-04-06T18:38:53.918Z,15.00
2019-04-06T18:41:24.661Z,14.90
2019-04-06T18:43:55.618Z,14.80
2019-04-06T18:46:28.003Z,14.80
2019-04-06T18:48:59.128Z,14.70
2019-04-06T18:51:29.282Z,14.60
2019-04-06T18:54:00.334Z,14.50
2019-04-06T18:56:31.123Z,14.40
2019-04-06T18:59:02.075Z,14.30
2019-04-06T19:01:34.232Z,14.30
2019-04-06T19:04:05.537Z,14.20
2019-04-06T19:06:37.361Z,14.20
2019-04-06T19:09:20.497Z,14.20
2019-04-06T19:11:53.566Z,14.20
2019-04-06T19:14:14.652Z,14.10
2019-04-06T19:16:46.888Z,14.10
2019-04-06T19:19:17.404Z,14.00
2019-04-06T19:21:49.002Z,13.90
2019-04-06T19:24:20.271Z,13.80
2019-04-06T19:26:51.056Z,13.70
2019-04-06T19:29:21.662Z,13.60
2019-04-06T19:31:52.630Z,13.60
2019-04-06T19:34:23.996Z,13.50
2019-04-06T19:36:54.416Z,13.40
2019-04-06T19:39:25.145Z,13.40
2019-04-06T19:41:56.153Z,13.30
2019-04-06T19:44:27.171Z,13.30
2019-04-06T19:46:57.771Z,13.30
2019-04-06T19:49:28.442Z,13.30
2019-04-06T19:51:59.465Z,13.30
2019-04-06T19:54:30.198Z,13.30
2019-04-06T19:57:00.670Z,13.30
2019-04-06T19:59:31.055Z,13.40
2019-04-06T20:02:01.749Z,13.40
2019-04-06T20:04:32.813Z,13.40
2019-04-06T20:07:03.878Z,13.40
2019-04-06T20:09:34.630Z,13.30
2019-04-06T20:12:07.720Z,13.40
2019-04-06T20:14:38.762Z,13.40
2019-04-06T20:17:09.603Z,13.40
2019-04-06T20:19:40.688Z,13.50
2019-04-06T20:22:11.190Z,13.50
2019-04-06T20:24:41.876Z,13.50
2019-04-06T20:27:12.808Z,13.50
2019-04-06T20:29:43.149Z,13.60
2019-04-06T20:32:14.215Z,13.60
2019-04-06T20:34:45.753Z,13.60
2019-04-06T20:37:16.374Z,13.70
2019-04-06T20:39:46.872Z,13.70
2019-04-06T20:42:18.304Z,13.80
2019-04-06T20:44:50.917Z,13.80
2019-04-06T20:47:21.656Z,13.80
2019-04-06T20:49:52.627Z,13.80
2019-04-06T20:52:24.144Z,13.80
2019-04-06T20:54:54.740Z,13.90
2019-04-06T20:57:25.765Z,13.90
2019-04-06T20:59:57.216Z,13.90
2019-04-06T21:02:27.755Z,13.90
2019-04-06T21:04:58.521Z,14.00
2019-04-06T21:07:29.394Z,14.00
2019-04-06T21:10:00.557Z,13.90
2019-04-06T21:12:32.032Z,13.90
2019-04-06T21:15:15.053Z,13.90
2019-04-06T21:17:35.843Z,14.00
2019-04-06T21:20:08.614Z,14.00
2019-04-06T21:22:39.632Z,14.00
2019-04-06T21:25:12.095Z,14.00
2019-04-06T21:27:44.096Z,14.10
2019-04-06T21:30:16.094Z,14.10
2019-04-06T21:32:46.389Z,14.20
2019-04-06T21:35:17.946Z,14.30
2019-04-06T21:37:49.319Z,14.30
2019-04-06T21:40:21.477Z,14.40
2019-04-06T21:42:52.287Z,14.40
2019-04-06T21:45:23.569Z,14.40
2019-04-06T21:47:55.096Z,14.40
2019-04-06T21:50:25.721Z,14.30
2019-04-06T21:52:55.893Z,14.30
2019-04-06T21:55:27.239Z,14.30
2019-04-06T21:57:58.918Z,14.30
2019-04-06T22:00:41.846Z,14.30
2019-04-06T22:03:14.113Z,14.30
2019-04-06T22:05:44.377Z,14.20
2019-04-06T22:08:15.813Z,14.20
2019-04-06T22:10:46.123Z,14.20
2019-04-06T22:13:16.659Z,14.10
2019-04-06T22:15:47.599Z,14.10
2019-04-06T22:18:19.328Z,14.00
2019-04-06T22:20:50.261Z,14.00
2019-04-06T22:23:22.559Z,14.00
2019-04-06T22:25:53.829Z,14.00
2019-04-06T22:28:24.541Z,13.90
2019-04-06T22:30:56.304Z,13.90
2019-04-06T22:33:26.785Z,13.80
2019-04-06T22:35:59.030Z,13.80
2019-04-06T22:38:29.077Z,13.70
2019-04-06T22:41:00.104Z,13.70
2019-04-06T22:43:30.833Z,13.70
2019-04-06T22:46:00.939Z,13.70
2019-04-06T22:48:33.581Z,13.60
2019-04-06T22:51:05.643Z,13.60
2019-04-06T22:53:37.891Z,13.50
2019-04-06T22:56:09.954Z,13.50
2019-04-06T22:58:41.827Z,13.50
2019-04-06T23:01:13.812Z,13.40
2019-04-06T23:04:09.518Z,13.40
2019-04-06T23:06:43.291Z,13.40
2019-04-06T23:09:15.037Z,13.30
2019-04-06T23:11:46.029Z,13.30
2019-04-06T23:14:16.846Z,13.30
2019-04-06T23:16:47.871Z,13.20
2019-04-06T23:19:20.445Z,13.30
2019-04-06T23:21:50.991Z,13.20
2019-04-06T23:24:21.775Z,13.20
2019-04-06T23:26:52.249Z,13.20
2019-04-06T23:29:22.643Z,13.10
2019-04-06T23:31:54.323Z,13.10
2019-04-06T23:34:24.916Z,13.10
2019-04-06T23:36:56.062Z,13.10
2019-04-06T23:39:26.951Z,13.10
2019-04-06T23:41:57.961Z,13.10
2019-04-06T23:44:28.700Z,13.00
2019-04-06T23:46:59.779Z,13.00
2019-04-06T23:49:31.614Z,13.00
2019-04-06T23:52:02.756Z,13.00
2019-04-06T23:54:33.913Z,13.00
2019-04-06T23:57:04.728Z,12.90
2019-04-06T23:59:36.770Z,12.90
